Du har inga inställningar för hoppväder.nu

Hoppväder.nu

Senast uppdaterat 11:34

UTC-tid

2018-05-22 kl. 09:34


Sol och måne

Solen går upp 3:31 och går ner 22:03 (beräknade cirkatider)
Nästa fullmåne blir om 7 dagar (2018-05-29)

METAR

ESNN (Sundsvall)
(14 minuter sedan)
ESNN 220920Z 15004KT 120V180 CAVOK 17/09 Q1019=



ESNK (Kramfors)
(14 minuter sedan)
ESNK 220920Z AUTO 17008KT 9999 BKN200/// 21/09 Q1018=



ESNO (Örnsköldsvik)
(14 minuter sedan)
ESNO 220920Z AUTO 14008KT 110V170 7000 FEW190/// 19/09 Q1019=



ESNY (Söderhamn)
ESNY NIL=



ESNZ (Östersund)
(14 minuter sedan)
ESNZ 220920Z 29004KT 220V320 CAVOK 16/07 Q1019=



TAF

ESNN (Sundsvall)
(64 minuter sedan)
ESNN 220830Z 2209/2218 17006KT CAVOK=



ESNK (Kramfors)
(94 minuter sedan)
ESNK 220800Z NIL=



ESNO (Örnsköldsvik)
(64 minuter sedan)
ESNO 220830Z 2209/2218 17006KT CAVOK=



ESNY (Söderhamn)
ESNY



ESNZ (Östersund)
(64 minuter sedan)
ESNZ 220830Z 2209/2218 31012KT CAVOK=





Kodnycklar till TAF och METAR






LHP

(Sundsvall är område D1a i Sydöstra delen)

ÖVERSIKT FÖR OMRÅDE C UTFÄRDAD 220725
GÄLLANDE DEN 22 MAJ 2018 MELLAN 08 OCH 16 UTC


Väderöversikt

En kallfront passerar åt sydost över Norrland med lokala CB-moln, skurar och möjligen åska I Norrbottensfjällen molnigt under dagen med inbäddade CB-moln och skurar som kan ha inslag av snö på kalfjället Minskad molnighet under sena eftermiddagen och kvällen Efterhand frisk nordvästlig vind I resten av fjällkedjan växlande molnighet och enstaka skurar på eftermiddagen Växlande vindar som från middagstid blir nordvästliga och tidvis friska

Sikt under 5 kilometer eller molnbas under 1000 fot
Väntas inte förekomma under perioden.

Måttlig eller svår isbildning
Väntas inte förekomma under perioden

Måttlig eller svår turbulens
Väntas inte förekomma under perioden



PROGNOS FÖR OMRÅDE C DEN SYDÖSTRA DELEN UTFÄRDAD 220725
GÄLLANDE DEN 22 MAJ 2018 MELLAN 08 OCH 16 UTC

Måttlig eller svår turbulens
08-16UTC: I hela området: Väntas inte förekomma under perioden

Måttlig eller svår isbildning
08-16UTC: I hela området: Väntas inte förekomma under perioden

Sikt/Väder/Moln
08-10UTC: Område D1a: Sikt >8km. Molnbas 1000ft - >2000ft.

08-14UTC: Område D2a: Sikt >8km. Molnbas >2000ft.

08-16UTC: Område D1b,D1c,D2b: Sikt >8km. Molnbas >2000ft.

10-16UTC: Område D1a: Sikt >8km. Molnbas >2000ft.

14-16UTC: Område D2a: Sikt 5km - >8km i regnskurar, åska. Molnbas >2000ft.


Molnöversida
08-14UTC: Område D2a: Ingen prognos

08-16UTC: Område D1a,D1b,D1c,D2b: Ingen prognos

14-16UTC: Område D2a: Molnöversida > FL125.


CB/TCU Moln
08-14UTC: Område D2a: Väntas inte förekomma under perioden

08-16UTC: Område D1a,D1b,D1c,D2b: Väntas inte förekomma under perioden

14-16UTC: Område D2a: ISOL CB


Nollgradersisoterm
08-14UTC: Noll grader FL090 - FL100.
14-16UTC: Noll grader FL080 - FL100.

Vind vid marken
08-10UTC: Område D1c: SO-S/7-13 knop.
Område D1a,D1b: SO-S/3-15 knop, byar upp till 17 knop.
Område D2a: S-SV/0-7 knop, byar upp till 16 knop.
Område D2b: S-SV/3-14 knop, byar upp till 18 knop.

10-12UTC: Område D1a: S/3-15 knop, byar upp till 18 knop.
Område D2a: S-SV/1-9 knop, byar upp till 18 knop.
Område D1b: SO-S/4-16 knop, byar upp till 19 knop.
Område D1c: SO-S/8-13 knop.
Område D2b: S/1-16 knop, byar upp till 21 knop.

12-14UTC: Område D1a: S/4-15 knop, byar upp till 21 knop.
Område D1c: SO-S/8-15 knop.
Område D2a: S-SV/0-9 knop, byar upp till 19 knop.
Område D1b: SO-S/4-15 knop, byar upp till 20 knop.
Område D2b: S/0-16 knop, byar upp till 24 knop.

14-16UTC: Område D1a: S/2-13 knop, byar upp till 19 knop.
Område D1c: SO-S/8-17 knop, byar upp till 20 knop.
Område D1b: SO-S/4-14 knop, byar upp till 18 knop.
Område D2b: SO-S/0-14 knop, byar upp till 21 knop.
Område D2a: S-SV/0-7 knop, byar upp till 17 knop.


Vind och temperatur
2000ft:
08-10UTC: 210/17kt +11.
10-12UTC: 200/17kt +12.
12-14UTC: 200/17kt +13.
14-16UTC: 210/16kt +12.

FL50:
08-10UTC: 210/17kt +6.
10-12UTC: 210/16kt +5.
12-14UTC: 230/14kt +5.
14-16UTC: 260/13kt +5.

FL100:
08-10UTC: 170/19kt -3.
10-12UTC: 170/19kt -4.
12-14UTC: 190/15kt -4.
14-16UTC: 210/10kt -4.

Lägsta QNH
1016 hPa.

OBS! endast utbredd måttlig eller svår isbildning och turbulens prognostiseras i LLF.
Avsaknad av isbildning och turbulens i prognosen utesluter inte förekomst av lätt isbildning och turbulens.
För indikation på lätt isbildning, var vänlig kontrollera om prognosen för molntopp ligger högre än nollgradersisotermen.
Förekomst av TCU eller CB medför alltid en risk för måttlig eller svår isbildning och turbulens även om det inte framgår explicit av prognosen.





Spotting

Hur fungerar spotthjälpen och Vindkartan?

Markvind är ca 2-8 m/s med byar på 9 m/s.
Vind på 600 m ca 9 m/s.
Vind på 1500 m ca 9 m/s.
Vind på 3000 m ca 10 m/s.
Feppen flyger ca 26 m/s över marken på finalen.
Du driver ca 440 m bakåt i frifall. (586 m)
Lämplig spot är 6 sekunder eller 157 m efter gropen.
(11 s eller 289 m)
För små grupper eller ensamhoppare bör man vänta 6-8 sekunder mellan grupperna.
För större grupper bör man vänta 11-14 sekunder mellan grupperna.


Vindkartan

Senast uppdaterad 11:34



All data kommer från LFV.se